createdAt,value
2018-12-13T00:02:25.025Z,102485.92
2018-12-13T00:04:51.028Z,102482.70
2018-12-13T00:07:16.968Z,102480.80
2018-12-13T00:09:42.976Z,102478.91
2018-12-13T00:12:09.024Z,102473.77
2018-12-13T00:14:35.017Z,102476.74
2018-12-13T00:17:01.164Z,102471.06
2018-12-13T00:19:27.164Z,102475.12
2018-12-13T00:21:53.110Z,102477.00
2018-12-13T00:24:19.112Z,102476.19
2018-12-13T00:26:45.128Z,102478.64
2018-12-13T00:29:11.073Z,102476.20
2018-12-13T00:31:37.080Z,102473.77
2018-12-13T00:34:03.129Z,102469.42
2018-12-13T00:36:29.122Z,102470.52
2018-12-13T00:38:55.064Z,102469.17
2018-12-13T00:41:21.064Z,102468.06
2018-12-13T00:43:47.004Z,102467.81
2018-12-13T00:46:13.020Z,102467.55
2018-12-13T00:48:39.047Z,102462.68
2018-12-13T00:51:05.064Z,102465.09
2018-12-13T00:53:31.096Z,102466.19
2018-12-13T00:55:57.101Z,102468.61
2018-12-13T00:58:23.041Z,102472.68
2018-12-13T01:00:49.049Z,102475.66
2018-12-13T01:03:15.100Z,102482.14
2018-12-13T01:05:41.089Z,102481.88
2018-12-13T01:08:07.008Z,102484.33
2018-12-13T01:10:32.959Z,102484.31
2018-12-13T01:12:59.057Z,102484.31
2018-12-13T01:15:25.100Z,102489.72
2018-12-13T01:17:51.012Z,102481.61
2018-12-13T01:20:17.044Z,102482.14
2018-12-13T01:22:43.057Z,102483.77
2018-12-13T01:25:09.088Z,102474.84
2018-12-13T01:27:35.089Z,102471.84
2018-12-13T01:30:01.033Z,102470.76
2018-12-13T01:32:27.037Z,102464.27
2018-12-13T01:34:52.988Z,102468.06
2018-12-13T01:37:18.981Z,102460.75
2018-12-13T01:39:44.947Z,102457.78
2018-12-13T01:42:10.940Z,102457.49
2018-12-13T01:44:36.956Z,102453.17
2018-12-13T01:47:03.016Z,102453.97
2018-12-13T01:49:28.989Z,102450.48
2018-12-13T01:51:55.039Z,102449.66
2018-12-13T01:54:21.045Z,102452.89
2018-12-13T01:56:47.079Z,102449.10
2018-12-13T01:59:13.080Z,102451.52
2018-12-13T02:01:39.025Z,102457.20
2018-12-13T02:04:05.033Z,102450.97
2018-12-13T02:06:31.073Z,102454.22
2018-12-13T02:08:57.068Z,102451.51
2018-12-13T02:11:23.120Z,102453.13
2018-12-13T02:13:49.129Z,102459.07
2018-12-13T02:16:15.188Z,102448.79
2018-12-13T02:18:41.108Z,102452.84
2018-12-13T02:21:07.091Z,102445.53
2018-12-13T02:23:33.128Z,102446.88
2018-12-13T02:25:59.239Z,102449.33
2018-12-13T02:28:25.284Z,102446.89
2018-12-13T02:30:51.286Z,102447.95
2018-12-13T02:33:17.321Z,102453.63
2018-12-13T02:35:43.328Z,102453.11
2018-12-13T02:38:09.271Z,102451.47
2018-12-13T02:40:35.397Z,102451.20
2018-12-13T02:43:01.412Z,102454.18
2018-12-13T02:45:27.421Z,102446.59
2018-12-13T02:47:53.460Z,102454.45
2018-12-13T02:50:19.483Z,102457.41
2018-12-13T02:52:45.616Z,102446.31
2018-12-13T02:55:11.713Z,102445.48
2018-12-13T02:57:37.656Z,102451.99
2018-12-13T03:00:03.788Z,102446.03
2018-12-13T03:02:29.805Z,102446.59
2018-12-13T03:04:55.804Z,102440.36
2018-12-13T03:07:21.760Z,102434.66
2018-12-13T03:09:47.755Z,102428.46
2018-12-13T03:12:13.876Z,102425.20
2018-12-13T03:14:39.812Z,102426.30
2018-12-13T03:17:05.884Z,102429.00
2018-12-13T03:19:31.867Z,102417.63
2018-12-13T03:21:57.969Z,102416.55
2018-12-13T03:24:23.924Z,102419.52
2018-12-13T03:26:49.908Z,102418.16
2018-12-13T03:29:15.850Z,102415.99
2018-12-13T03:31:41.865Z,102422.48
2018-12-13T03:34:08.001Z,102421.94
2018-12-13T03:36:34.008Z,102424.38
2018-12-13T03:38:59.948Z,102424.38
2018-12-13T03:41:25.949Z,102424.09
2018-12-13T03:43:51.889Z,102425.17
2018-12-13T03:46:17.892Z,102424.35
2018-12-13T03:48:43.879Z,102421.66
2018-12-13T03:51:09.836Z,102425.71
2018-12-13T03:53:35.761Z,102414.61
2018-12-13T03:56:01.909Z,102414.05
2018-12-13T03:58:28.009Z,102413.79
2018-12-13T04:00:54.148Z,102412.44
2018-12-13T04:03:20.164Z,102413.79
2018-12-13T04:05:46.201Z,102410.00
2018-12-13T04:08:12.209Z,102399.98
2018-12-13T04:10:38.372Z,102403.25
2018-12-13T04:13:04.357Z,102403.25
2018-12-13T04:15:30.497Z,102403.49
2018-12-13T04:17:56.404Z,102397.00
2018-12-13T04:20:22.479Z,102403.50
2018-12-13T04:22:48.433Z,102399.18
2018-12-13T04:25:14.376Z,102398.89
2018-12-13T04:27:40.383Z,102404.58
2018-12-13T04:30:06.429Z,102396.75
2018-12-13T04:32:32.429Z,102395.63
2018-12-13T04:34:58.521Z,102399.95
2018-12-13T04:37:24.466Z,102391.05
2018-12-13T04:39:50.504Z,102391.05
2018-12-13T04:42:16.540Z,102390.76
2018-12-13T04:44:42.545Z,102388.33
2018-12-13T04:47:08.700Z,102393.20
2018-12-13T04:49:34.701Z,102390.23
2018-12-13T04:52:00.739Z,102388.33
2018-12-13T04:54:26.844Z,102386.16
2018-12-13T04:56:52.890Z,102384.55
2018-12-13T04:59:18.897Z,102376.14
2018-12-13T05:01:44.928Z,102372.91
2018-12-13T05:04:10.937Z,102374.27
2018-12-13T05:06:36.979Z,102372.92
2018-12-13T05:09:05.153Z,102369.66
2018-12-13T05:11:31.173Z,102377.50
2018-12-13T05:13:57.189Z,102373.69
2018-12-13T05:16:23.217Z,102372.86
2018-12-13T05:18:49.120Z,102366.92
2018-12-13T05:21:15.068Z,102364.20
2018-12-13T05:23:41.087Z,102361.50
2018-12-13T05:26:07.085Z,102356.36
2018-12-13T05:28:33.132Z,102366.64
2018-12-13T05:30:59.128Z,102360.97
2018-12-13T05:33:25.073Z,102355.57
2018-12-13T05:35:51.081Z,102356.37
2018-12-13T05:38:17.220Z,102355.55
2018-12-13T05:40:43.222Z,102346.62
2018-12-13T05:43:09.164Z,102349.31
2018-12-13T05:45:35.254Z,102353.11
2018-12-13T05:48:01.217Z,102352.58
2018-12-13T05:50:27.207Z,102339.34
2018-12-13T05:52:53.147Z,102340.39
2018-12-13T05:55:19.152Z,102345.80
2018-12-13T05:57:45.089Z,102341.48
2018-12-13T06:00:11.109Z,102338.78
2018-12-13T06:02:37.164Z,102329.06
2018-12-13T06:05:03.576Z,102328.77
2018-12-13T06:07:29.580Z,102336.88
2018-12-13T06:09:55.520Z,102331.22
2018-12-13T06:12:21.529Z,102330.39
2018-12-13T06:14:47.573Z,102339.32
2018-12-13T06:17:13.568Z,102338.50
2018-12-13T06:19:39.509Z,102337.94
2018-12-13T06:22:05.508Z,102338.50
2018-12-13T06:24:31.448Z,102343.61
2018-12-13T06:26:57.461Z,102346.87
2018-12-13T06:29:23.500Z,102343.88
2018-12-13T06:31:49.500Z,102343.88
2018-12-13T06:34:15.453Z,102348.45
2018-12-13T06:36:41.440Z,102348.45
2018-12-13T06:39:07.488Z,102349.28
2018-12-13T06:41:33.712Z,102350.64
2018-12-13T06:43:59.736Z,102355.77
2018-12-13T06:46:25.752Z,102352.78
2018-12-13T06:48:51.780Z,102345.77
2018-12-13T06:51:17.796Z,102350.91
2018-12-13T06:53:43.808Z,102350.88
2018-12-13T06:56:09.756Z,102350.61
2018-12-13T06:58:35.748Z,102353.58
2018-12-13T07:01:01.700Z,102360.33
2018-12-13T07:03:27.700Z,102353.58
2018-12-13T07:05:53.644Z,102351.41
2018-12-13T07:08:19.636Z,102299.98
2018-12-13T07:10:45.586Z,102348.44
2018-12-13T07:13:11.592Z,102349.80
2018-12-13T07:15:37.624Z,102349.50
2018-12-13T07:18:03.634Z,102348.97
2018-12-13T07:20:29.681Z,102352.46
2018-12-13T07:22:55.672Z,102347.06
2018-12-13T07:25:21.622Z,102347.59
2018-12-13T07:27:47.628Z,102344.63
2018-12-13T07:30:13.659Z,102351.11
2018-12-13T07:32:39.669Z,102355.43
2018-12-13T07:35:05.732Z,102357.58
2018-12-13T07:37:31.712Z,102356.48
2018-12-13T07:39:57.657Z,102353.26
2018-12-13T07:42:23.756Z,102350.56
2018-12-13T07:44:49.703Z,102345.42
2018-12-13T07:47:15.696Z,102345.95
2018-12-13T07:49:41.648Z,102344.34
2018-12-13T07:52:07.649Z,102350.00
2018-12-13T07:54:33.556Z,102341.34
2018-12-13T07:56:59.508Z,102342.69
2018-12-13T07:59:25.532Z,102337.03
2018-12-13T08:01:51.850Z,102332.16
2018-12-13T08:04:17.860Z,102332.45
2018-12-13T08:06:43.820Z,102339.75
2018-12-13T08:09:09.913Z,102344.66
2018-12-13T08:11:35.957Z,102341.95
2018-12-13T08:14:02.292Z,102342.53
2018-12-13T08:16:28.304Z,102343.61
2018-12-13T08:18:54.303Z,102347.42
2018-12-13T08:21:20.453Z,102345.27
2018-12-13T08:23:46.457Z,102342.86
2018-12-13T08:26:12.392Z,102344.23
2018-12-13T08:28:38.392Z,102347.24
2018-12-13T08:31:04.336Z,102340.24
2018-12-13T08:33:30.444Z,102345.92
2018-12-13T08:35:56.383Z,102343.23
2018-12-13T08:38:27.289Z,102348.12
2018-12-13T08:40:50.372Z,102338.10
2018-12-13T08:43:16.380Z,102352.70
2018-12-13T08:45:42.329Z,102343.23
2018-12-13T08:48:08.320Z,102354.34
2018-12-13T08:50:34.268Z,102352.99
2018-12-13T08:53:00.264Z,102352.73
2018-12-13T08:55:26.193Z,102358.17
2018-12-13T08:57:52.228Z,102349.24
2018-12-13T09:00:18.233Z,102353.30
2018-12-13T09:02:44.173Z,102353.56
2018-12-13T09:05:10.180Z,102350.05
2018-12-13T09:07:36.127Z,102344.94
2018-12-13T09:10:02.140Z,102346.55
2018-12-13T09:12:28.152Z,102344.92
2018-12-13T09:14:54.188Z,102336.53
2018-12-13T09:17:20.192Z,102337.09
2018-12-13T09:19:46.128Z,102333.55
2018-12-13T09:22:12.136Z,102337.33
2018-12-13T09:24:38.072Z,102324.34
2018-12-13T09:27:04.146Z,102323.27
2018-12-13T09:29:30.224Z,102323.52
2018-12-13T09:31:56.229Z,102327.86
2018-12-13T09:34:22.280Z,102324.06
2018-12-13T09:36:48.272Z,102320.78
2018-12-13T09:39:14.219Z,102321.34
2018-12-13T09:41:40.533Z,102319.14
2018-12-13T09:44:06.560Z,102312.39
2018-12-13T09:46:32.577Z,102319.42
2018-12-13T09:48:58.612Z,102312.09
2018-12-13T09:51:24.622Z,102311.81
2018-12-13T09:53:50.679Z,102316.73
2018-12-13T09:56:16.660Z,102306.70
2018-12-13T09:58:42.586Z,102311.33
2018-12-13T10:01:08.625Z,102309.97
2018-12-13T10:03:34.625Z,102311.89
2018-12-13T10:06:00.569Z,102308.64
2018-12-13T10:08:26.564Z,102304.32
2018-12-13T10:10:52.517Z,102299.42
2018-12-13T10:13:18.617Z,102295.91
2018-12-13T10:15:44.564Z,102302.95
2018-12-13T10:18:10.565Z,102294.27
2018-12-13T10:20:36.605Z,102294.53
2018-12-13T10:23:02.616Z,102294.26
2018-12-13T10:25:28.757Z,102295.08
2018-12-13T10:27:54.857Z,102291.27
2018-12-13T10:30:20.797Z,102285.58
2018-12-13T10:32:46.796Z,102251.28
2018-12-13T10:35:12.740Z,102283.69
2018-12-13T10:37:38.740Z,102286.94
2018-12-13T10:40:04.729Z,102286.94
2018-12-13T10:42:30.688Z,102289.65
2018-12-13T10:44:56.704Z,102288.55
2018-12-13T10:47:22.648Z,102289.09
2018-12-13T10:49:48.652Z,102289.06
2018-12-13T10:52:14.588Z,102285.28
2018-12-13T10:54:40.600Z,102283.11
2018-12-13T10:57:06.668Z,102290.42
2018-12-13T10:59:32.640Z,102283.38
2018-12-13T11:01:58.623Z,102284.73
2018-12-13T11:04:24.597Z,102281.77
2018-12-13T11:06:50.633Z,102282.02
2018-12-13T11:09:16.632Z,102279.06
2018-12-13T11:11:42.574Z,102277.70
2018-12-13T11:14:08.577Z,102281.23
2018-12-13T11:16:34.616Z,102277.95
2018-12-13T11:19:00.625Z,102290.14
2018-12-13T11:21:26.664Z,102282.81
2018-12-13T11:23:52.665Z,102284.68
2018-12-13T11:26:18.592Z,102283.87
2018-12-13T11:28:50.344Z,102275.46
2018-12-13T11:31:16.265Z,102281.17
2018-12-13T11:33:42.200Z,102276.01
2018-12-13T11:36:08.313Z,102275.98
2018-12-13T11:38:34.252Z,102274.37
2018-12-13T11:41:00.254Z,102266.80
2018-12-13T11:43:26.289Z,102265.19
2018-12-13T11:45:52.301Z,102264.40
2018-12-13T11:48:18.241Z,102264.80
2018-12-13T11:50:44.252Z,102263.23
2018-12-13T11:53:10.413Z,102260.87
2018-12-13T11:55:36.927Z,102267.21
2018-12-13T11:58:07.684Z,102260.94
2018-12-13T12:00:33.661Z,102260.37
2018-12-13T12:02:59.609Z,102256.00
2018-12-13T12:05:25.712Z,102253.23
2018-12-13T12:07:51.762Z,102250.39
2018-12-13T12:10:17.977Z,102248.56
2018-12-13T12:12:44.001Z,102250.89
2018-12-13T12:15:10.005Z,102247.00
2018-12-13T12:17:36.020Z,102244.84
2018-12-13T12:20:02.180Z,102242.69
2018-12-13T12:22:28.180Z,102246.47
2018-12-13T12:24:54.220Z,102249.70
2018-12-13T12:27:20.238Z,102243.50
2018-12-13T12:29:46.273Z,102244.86
2018-12-13T12:32:12.268Z,102234.84
2018-12-13T12:34:38.204Z,102236.75
2018-12-13T12:37:04.209Z,102232.95
2018-12-13T12:39:30.168Z,102232.95
2018-12-13T12:41:56.149Z,102229.69
2018-12-13T12:44:22.096Z,102228.59
2018-12-13T12:46:48.113Z,102232.95
2018-12-13T12:49:14.140Z,102229.14
2018-12-13T12:51:40.165Z,102222.38
2018-12-13T12:54:06.173Z,102234.84
2018-12-13T12:56:32.337Z,102236.45
2018-12-13T12:58:58.320Z,102230.78
2018-12-13T13:01:24.364Z,102227.79
2018-12-13T13:03:50.357Z,102222.39
2018-12-13T13:06:16.414Z,102226.16
2018-12-13T13:08:42.427Z,102216.41
2018-12-13T13:11:08.552Z,102220.20
2018-12-13T13:13:34.561Z,102221.02
2018-12-13T13:16:00.609Z,102218.06
2018-12-13T13:18:26.609Z,102222.39
2018-12-13T13:20:52.640Z,102212.09
2018-12-13T13:23:18.652Z,102211.56
2018-12-13T13:25:44.694Z,102201.03
2018-12-13T13:28:10.696Z,102205.61
2018-12-13T13:30:36.632Z,102200.98
2018-12-13T13:33:02.741Z,102200.45
2018-12-13T13:35:28.656Z,102192.08
2018-12-13T13:37:54.612Z,102190.72
2018-12-13T13:40:20.609Z,102181.25
2018-12-13T13:42:46.649Z,102183.15
2018-12-13T13:45:12.656Z,102186.41
2018-12-13T13:47:38.694Z,102180.98
2018-12-13T13:50:04.816Z,102186.34
2018-12-13T13:52:30.844Z,102184.72
2018-12-13T13:54:56.848Z,102188.50
2018-12-13T13:57:22.984Z,102182.82
2018-12-13T13:59:48.995Z,102181.98
2018-12-13T14:02:14.929Z,102183.89
2018-12-13T14:04:41.060Z,102192.28
2018-12-13T14:07:07.109Z,102193.63
2018-12-13T14:09:37.922Z,102188.73
2018-12-13T14:12:01.072Z,102180.07
2018-12-13T14:14:27.072Z,102183.34
2018-12-13T14:16:53.184Z,102178.46
2018-12-13T14:19:20.597Z,102178.75
2018-12-13T14:21:46.689Z,102179.53
2018-12-13T14:24:12.737Z,102189.30
2018-12-13T14:26:38.724Z,102184.16
2018-12-13T14:29:04.677Z,102187.66
2018-12-13T14:31:30.674Z,102186.05
2018-12-13T14:33:56.828Z,102188.22
2018-12-13T14:36:22.816Z,102187.66
2018-12-13T14:38:48.756Z,102186.84
2018-12-13T14:41:14.769Z,102185.77
2018-12-13T14:43:40.809Z,102188.75
2018-12-13T14:46:06.805Z,102191.45
2018-12-13T14:48:32.748Z,102190.38
2018-12-13T14:50:58.756Z,102195.23
2018-12-13T14:53:24.892Z,102186.33
2018-12-13T14:55:50.905Z,102192.02
2018-12-13T14:58:17.060Z,102190.38
2018-12-13T15:00:43.045Z,102187.95
2018-12-13T15:03:08.991Z,102189.84
2018-12-13T15:05:35.096Z,102193.37
2018-12-13T15:08:01.013Z,102193.37
2018-12-13T15:10:26.960Z,102191.17
2018-12-13T15:12:52.957Z,102192.81
2018-12-13T15:15:18.892Z,102193.88
2018-12-13T15:17:44.901Z,102191.71
2018-12-13T15:20:10.836Z,102195.23
2018-12-13T15:22:36.945Z,102197.13
2018-12-13T15:25:02.917Z,102205.48
2018-12-13T15:27:28.888Z,102191.91
2018-12-13T15:29:54.836Z,102205.17
2018-12-13T15:32:20.834Z,102210.28
2018-12-13T15:34:46.770Z,102211.90
2018-12-13T15:37:12.779Z,102218.91
2018-12-13T15:39:38.716Z,102220.77
2018-12-13T15:42:04.729Z,102222.63
2018-12-13T15:44:30.764Z,102212.66
2018-12-13T15:46:56.764Z,102207.74
2018-12-13T15:49:22.712Z,102213.44
2018-12-13T15:51:48.709Z,102211.83
2018-12-13T15:54:14.652Z,102210.47
2018-12-13T15:56:40.654Z,102209.40
2018-12-13T15:59:06.598Z,102201.55
2018-12-13T16:01:32.609Z,102209.96
2018-12-13T16:03:58.643Z,102201.27
2018-12-13T16:06:24.753Z,102200.45
2018-12-13T16:08:50.768Z,102196.67
2018-12-13T16:11:17.636Z,102188.83
2018-12-13T16:13:43.637Z,102194.48
2018-12-13T16:16:09.672Z,102188.56
2018-12-13T16:18:35.700Z,102190.41
2018-12-13T16:21:01.724Z,102189.59
2018-12-13T16:23:27.725Z,102192.59
2018-12-13T16:25:53.677Z,102185.00
2018-12-13T16:28:19.669Z,102187.96
2018-12-13T16:30:45.607Z,102194.92
2018-12-13T16:33:11.621Z,102188.94
2018-12-13T16:35:38.569Z,102192.16
2018-12-13T16:38:04.789Z,102198.08
2018-12-13T16:40:30.728Z,102188.59
2018-12-13T16:42:56.729Z,102192.09
2018-12-13T16:45:22.672Z,102184.49
2018-12-13T16:47:48.686Z,102185.84
2018-12-13T16:50:14.728Z,102186.38
2018-12-13T16:52:40.724Z,102183.39
2018-12-13T16:55:06.817Z,102186.59
2018-12-13T16:57:32.788Z,102183.06
2018-12-13T16:59:58.789Z,102189.55
2018-12-13T17:02:24.740Z,102201.72
2018-12-13T17:04:50.765Z,102205.78
2018-12-13T17:07:16.780Z,102208.46
2018-12-13T17:09:42.781Z,102207.36
2018-12-13T17:12:08.852Z,102196.79
2018-12-13T17:14:34.820Z,102203.29
2018-12-13T17:17:00.873Z,102196.79
2018-12-13T17:19:26.869Z,102196.51
2018-12-13T17:21:52.815Z,102196.02
2018-12-13T17:24:18.912Z,102190.34
2018-12-13T17:26:44.868Z,102201.76
2018-12-13T17:29:10.864Z,102205.04
2018-12-13T17:31:36.912Z,102195.30
2018-12-13T17:34:02.915Z,102201.54
2018-12-13T17:36:28.944Z,102208.06
2018-12-13T17:38:54.952Z,102199.94
2018-12-13T17:41:20.873Z,102206.96
2018-12-13T17:43:46.808Z,102206.42
2018-12-13T17:46:12.821Z,102204.82
2018-12-13T17:48:38.860Z,102199.40
2018-12-13T17:51:04.861Z,102209.95
2018-12-13T17:53:30.808Z,102214.59
2018-12-13T17:55:56.800Z,102209.98
2018-12-13T17:58:22.745Z,102223.29
2018-12-13T18:00:48.753Z,102216.77
2018-12-13T18:03:14.796Z,102216.52
2018-12-13T18:05:40.801Z,102219.22
2018-12-13T18:08:06.843Z,102218.44
2018-12-13T18:10:32.955Z,102216.27
2018-12-13T18:12:58.988Z,102217.36
2018-12-13T18:15:24.993Z,102215.76
2018-12-13T18:17:51.049Z,102222.25
2018-12-13T18:20:17.001Z,102215.22
2018-12-13T18:22:42.976Z,102216.58
2018-12-13T18:25:08.980Z,102216.32
2018-12-13T18:27:34.931Z,102216.58
2018-12-13T18:30:00.929Z,102218.47
2018-12-13T18:32:26.967Z,102216.29
2018-12-13T18:34:52.996Z,102219.56
2018-12-13T18:37:19.137Z,102222.30
2018-12-13T18:39:45.120Z,102222.02
2018-12-13T18:42:11.253Z,102224.48
2018-12-13T18:44:37.288Z,102217.17
2018-12-13T18:47:03.511Z,102222.05
2018-12-13T18:49:29.640Z,102221.23
2018-12-13T18:51:55.645Z,102223.94
2018-12-13T18:54:21.689Z,102231.28
2018-12-13T18:56:47.689Z,102228.83
2018-12-13T18:59:13.632Z,102232.95
2018-12-13T19:01:39.636Z,102229.93
2018-12-13T19:04:05.678Z,102234.75
2018-12-13T19:06:31.676Z,102236.87
2018-12-13T19:08:57.616Z,102235.27
2018-12-13T19:11:23.625Z,102236.05
2018-12-13T19:13:49.669Z,102231.20
2018-12-13T19:16:15.670Z,102235.27
2018-12-13T19:18:41.710Z,102233.91
2018-12-13T19:21:07.624Z,102238.25
2018-12-13T19:23:33.656Z,102242.85
2018-12-13T19:25:59.656Z,102242.03
2018-12-13T19:28:25.615Z,102239.61
2018-12-13T19:30:51.604Z,102249.66
2018-12-13T19:33:17.620Z,102243.95
2018-12-13T19:35:43.564Z,102251.27
2018-12-13T19:38:09.567Z,102249.09
2018-12-13T19:40:35.610Z,102246.95
2018-12-13T19:43:01.620Z,102246.13
2018-12-13T19:45:27.756Z,102252.62
2018-12-13T19:47:53.765Z,102252.62
2018-12-13T19:50:19.800Z,102247.48
2018-12-13T19:52:45.816Z,102249.69
2018-12-13T19:55:11.860Z,102250.22
2018-12-13T19:57:37.852Z,102251.86
2018-12-13T20:00:04.644Z,102254.84
2018-12-13T20:02:30.620Z,102254.56
2018-12-13T20:04:56.656Z,102252.98
2018-12-13T20:07:22.661Z,102246.48
2018-12-13T20:09:48.605Z,102244.84
2018-12-13T20:12:14.604Z,102251.91
2018-12-13T20:14:40.532Z,102254.87
2018-12-13T20:17:06.569Z,102253.00
2018-12-13T20:19:32.572Z,102254.36
2018-12-13T20:21:58.625Z,102248.14
2018-12-13T20:24:24.617Z,102254.60
2018-12-13T20:26:50.565Z,102254.34
2018-12-13T20:29:16.561Z,102256.23
2018-12-13T20:31:42.514Z,102258.41
2018-12-13T20:34:08.508Z,102260.05
2018-12-13T20:36:34.544Z,102256.80
2018-12-13T20:39:00.561Z,102260.04
2018-12-13T20:41:26.596Z,102258.43
2018-12-13T20:43:52.607Z,102259.24
2018-12-13T20:46:18.636Z,102255.44
2018-12-13T20:48:44.650Z,102255.44
2018-12-13T20:51:10.701Z,102253.58
2018-12-13T20:53:36.693Z,102255.20
2018-12-13T20:56:02.765Z,102251.42
2018-12-13T20:58:28.740Z,102249.25
2018-12-13T21:00:54.781Z,102255.77
2018-12-13T21:03:20.795Z,102244.41
2018-12-13T21:05:46.805Z,102261.45
2018-12-13T21:08:12.850Z,102261.20
2018-12-13T21:10:39.004Z,102264.19
2018-12-13T21:13:05.013Z,102264.19
2018-12-13T21:15:30.997Z,102264.99
2018-12-13T21:17:57.072Z,102264.48
2018-12-13T21:20:23.057Z,102258.53
2018-12-13T21:22:49.089Z,102258.80
2018-12-13T21:25:15.093Z,102258.52
2018-12-13T21:27:41.136Z,102262.60
2018-12-13T21:30:07.136Z,102252.59
2018-12-13T21:32:33.072Z,102261.80
2018-12-13T21:34:59.080Z,102262.61
2018-12-13T21:37:25.120Z,102262.36
2018-12-13T21:39:51.124Z,102263.17
2018-12-13T21:42:17.077Z,102259.10
2018-12-13T21:44:43.064Z,102260.73
2018-12-13T21:47:09.125Z,102261.02
2018-12-13T21:49:35.118Z,102262.64
2018-12-13T21:52:01.161Z,102269.15
2018-12-13T21:54:27.163Z,102262.66
2018-12-13T21:56:53.203Z,102266.98
2018-12-13T21:59:19.228Z,102268.62
2018-12-13T22:01:45.225Z,102259.16
2018-12-13T22:04:11.177Z,102256.70
2018-12-13T22:06:37.172Z,102257.80
2018-12-13T22:09:04.599Z,102256.19
2018-12-13T22:11:30.553Z,102258.35
2018-12-13T22:13:56.593Z,102259.98
2018-12-13T22:16:22.592Z,102258.08
2018-12-13T22:18:48.536Z,102253.77
2018-12-13T22:21:14.452Z,102259.45
2018-12-13T22:23:40.481Z,102261.34
2018-12-13T22:26:06.484Z,102257.02
2018-12-13T22:28:32.420Z,102260.01
2018-12-13T22:30:58.424Z,102259.72
2018-12-13T22:33:24.364Z,102261.59
2018-12-13T22:35:50.369Z,102258.89
2018-12-13T22:38:16.313Z,102260.26
2018-12-13T22:40:42.313Z,102257.53
2018-12-13T22:43:08.236Z,102259.16
2018-12-13T22:45:34.277Z,102257.83
2018-12-13T22:48:00.274Z,102253.23
2018-12-13T22:50:26.219Z,102256.73
2018-12-13T22:52:52.323Z,102255.12
2018-12-13T22:55:18.374Z,102256.19
2018-12-13T22:57:44.377Z,102251.05
2018-12-13T23:00:10.510Z,102254.03
2018-12-13T23:02:36.572Z,102252.42
2018-12-13T23:05:02.604Z,102264.87
2018-12-13T23:07:28.571Z,102264.58
2018-12-13T23:09:54.609Z,102264.85
2018-12-13T23:12:20.608Z,102265.13
2018-12-13T23:14:46.553Z,102267.30
2018-12-13T23:17:12.553Z,102266.75
2018-12-13T23:19:38.496Z,102261.61
2018-12-13T23:22:04.412Z,102260.53
2018-12-13T23:24:30.436Z,102260.53
2018-12-13T23:26:56.440Z,102258.10
2018-12-13T23:29:22.360Z,102252.97
2018-12-13T23:31:48.319Z,102262.44
2018-12-13T23:34:14.308Z,102252.42
2018-12-13T23:36:40.249Z,102254.30
2018-12-13T23:39:06.252Z,102249.17
2018-12-13T23:41:32.294Z,102249.17
2018-12-13T23:43:58.296Z,102246.48
2018-12-13T23:46:24.248Z,102251.33
2018-12-13T23:48:50.228Z,102240.00
2018-12-13T23:51:16.176Z,102240.80
2018-12-13T23:53:42.184Z,102246.47
2018-12-13T23:56:08.121Z,102239.72
2018-12-13T23:58:34.124Z,102250.53
